Terminal Aerodrome Forecast
Issued by NWS

Home | Current Version | Previous Version | Text Only | Print | Product List | Glossary On
Versions: 1 2 3 4 5 6 7 8 9 10 11 12 13 14 15 16
000
FTUS43 KLSX 172300
TAFCPS
TAF
KCPS 172320Z 1800/1824 11007KT P6SM SCT050
     FM180100 VRB03KT P6SM SCT050
     FM181600 14009KT P6SM BKN050=

USA.gov is the U.S. government's official web portal to all federal, state and local government web resources and services.